sensor_id;sensor_type;location;lat;lon;timestamp;pressure;altitude;pressure_sealevel;temperature;humidity
44144;BME280;68165;51.920;4.492;2023-04-22T00:00:47;67160.31;;;11.76;100.00
44144;BME280;68165;51.920;4.492;2023-04-22T00:03:13;67159.22;;;11.75;100.00
44144;BME280;68165;51.920;4.492;2023-04-22T00:05:40;67164.88;;;11.73;100.00
44144;BME280;68165;51.920;4.492;2023-04-22T00:08:06;67151.38;;;11.68;100.00
44144;BME280;68165;51.920;4.492;2023-04-22T00:10:31;67158.84;;;11.70;100.00
44144;BME280;68165;51.920;4.492;2023-04-22T00:12:57;67145.78;;;11.63;100.00
44144;BME280;68165;51.920;4.492;2023-04-22T00:15:24;67138.94;;;11.55;100.00
44144;BME280;68165;51.920;4.492;2023-04-22T00:17:51;67128.31;;;11.45;100.00
44144;BME280;68165;51.920;4.492;2023-04-22T00:48:44;67113.41;;;11.34;100.00
44144;BME280;68165;51.920;4.492;2023-04-22T00:51:09;67125.13;;;11.44;100.00
44144;BME280;68165;51.920;4.492;2023-04-22T00:53:35;67127.38;;;11.46;100.00
44144;BME280;68165;51.920;4.492;2023-04-22T00:56:00;67121.78;;;11.41;100.00
44144;BME280;68165;51.920;4.492;2023-04-22T00:58:27;67123.47;;;11.43;100.00
44144;BME280;68165;51.920;4.492;2023-04-22T01:00:55;67109.75;;;11.26;100.00
44144;BME280;68165;51.920;4.492;2023-04-22T01:03:20;67116.59;;;11.34;100.00
44144;BME280;68165;51.920;4.492;2023-04-22T01:08:27;67068.78;;;10.93;100.00
44144;BME280;68165;51.920;4.492;2023-04-22T01:10:54;67090.88;;;11.18;100.00
44144;BME280;68165;51.920;4.492;2023-04-22T01:13:20;67079.03;;;10.98;100.00
44144;BME280;68165;51.920;4.492;2023-04-22T01:15:45;67076.97;;;10.98;100.00
44144;BME280;68165;51.920;4.492;2023-04-22T01:18:12;67106.38;;;11.23;100.00
44144;BME280;68165;51.920;4.492;2023-04-22T01:20:38;67083.28;;;11.07;100.00
44144;BME280;68165;51.920;4.492;2023-04-22T01:28:15;67086.84;;;11.05;100.00
44144;BME280;68165;51.920;4.492;2023-04-22T01:30:42;67092.59;;;11.13;100.00
44144;BME280;68165;51.920;4.492;2023-04-22T01:33:09;67093.72;;;11.14;100.00
44144;BME280;68165;51.920;4.492;2023-04-22T01:35:36;67089.81;;;11.10;100.00
44144;BME280;68165;51.920;4.492;2023-04-22T01:38:03;67089.25;;;11.10;100.00
44144;BME280;68165;51.920;4.492;2023-04-22T01:40:30;67083.09;;;11.04;100.00
44144;BME280;68165;51.920;4.492;2023-04-22T01:42:57;67074.34;;;10.98;100.00
44144;BME280;68165;51.920;4.492;2023-04-22T01:45:23;67065.25;;;10.88;100.00
44144;BME280;68165;51.920;4.492;2023-04-22T01:47:50;67071.41;;;10.93;100.00
44144;BME280;68165;51.920;4.492;2023-04-22T01:50:16;67060.25;;;10.83;100.00
44144;BME280;68165;51.920;4.492;2023-04-22T01:52:42;67059.84;;;10.85;100.00
44144;BME280;68165;51.920;4.492;2023-04-22T02:05:30;67068.38;;;10.95;100.00
44144;BME280;68165;51.920;4.492;2023-04-22T02:07:55;67068.22;;;10.93;100.00
44144;BME280;68165;51.920;4.492;2023-04-22T02:10:21;67065.41;;;10.90;100.00
44144;BME280;68165;51.920;4.492;2023-04-22T02:12:46;67081.44;;;11.02;100.00
44144;BME280;68165;51.920;4.492;2023-04-22T02:15:12;67062.63;;;10.88;100.00
44144;BME280;68165;51.920;4.492;2023-04-22T02:17:37;67065.81;;;10.88;100.00
44144;BME280;68165;51.920;4.492;2023-04-22T02:20:04;67067.66;;;10.92;100.00
44144;BME280;68165;51.920;4.492;2023-04-22T02:22:31;67060.97;;;10.86;100.00
44144;BME280;68165;51.920;4.492;2023-04-22T02:24:57;67052.44;;;10.76;100.00
44144;BME280;68165;51.920;4.492;2023-04-22T02:27:22;67053.94;;;10.75;100.00
44144;BME280;68165;51.920;4.492;2023-04-22T02:29:48;67067.50;;;10.90;100.00
44144;BME280;68165;51.920;4.492;2023-04-22T02:32:13;67057.63;;;10.83;100.00
44144;BME280;68165;51.920;4.492;2023-04-22T02:34:41;67057.94;;;10.88;100.00
44144;BME280;68165;51.920;4.492;2023-04-22T02:37:06;67052.59;;;10.79;100.00
44144;BME280;68165;51.920;4.492;2023-04-22T02:39:32;67063.56;;;10.86;100.00
44144;BME280;68165;51.920;4.492;2023-04-22T02:41:58;67052.03;;;10.78;100.00
44144;BME280;68165;51.920;4.492;2023-04-22T02:44:23;67059.69;;;10.83;100.00
44144;BME280;68165;51.920;4.492;2023-04-22T02:46:49;67049.47;;;10.71;100.00
44144;BME280;68165;51.920;4.492;2023-04-22T02:49:15;67056.16;;;10.77;100.00
44144;BME280;68165;51.920;4.492;2023-04-22T02:51:41;67049.47;;;10.71;100.00
44144;BME280;68165;51.920;4.492;2023-04-22T02:54:06;67055.03;;;10.76;100.00
44144;BME280;68165;51.920;4.492;2023-04-22T02:56:32;67033.06;;;10.61;100.00
44144;BME280;68165;51.920;4.492;2023-04-22T02:58:59;67044.63;;;10.69;100.00
44144;BME280;68165;51.920;4.492;2023-04-22T03:01:25;67037.91;;;10.63;100.00
44144;BME280;68165;51.920;4.492;2023-04-22T03:03:50;67034.41;;;10.57;100.00
44144;BME280;68165;51.920;4.492;2023-04-22T03:06:16;67041.66;;;10.64;100.00
44144;BME280;68165;51.920;4.492;2023-04-22T03:08:42;67035.28;;;10.63;100.00
44144;BME280;68165;51.920;4.492;2023-04-22T03:11:07;67052.03;;;10.78;100.00
44144;BME280;68165;51.920;4.492;2023-04-22T03:13:33;67049.63;;;10.74;100.00
44144;BME280;68165;51.920;4.492;2023-04-22T03:15:58;67051.31;;;10.75;100.00
44144;BME280;68165;51.920;4.492;2023-04-22T03:18:24;67059.69;;;10.83;100.00
44144;BME280;68165;51.920;4.492;2023-04-22T03:20:49;67046.28;;;10.71;100.00
44144;BME280;68165;51.920;4.492;2023-04-22T03:23:15;67057.22;;;10.85;100.00
44144;BME280;68165;51.920;4.492;2023-04-22T03:25:40;67057.63;;;10.83;100.00
44144;BME280;68165;51.920;4.492;2023-04-22T03:28:06;67050.59;;;10.72;100.00
44144;BME280;68165;51.920;4.492;2023-04-22T03:30:31;67041.66;;;10.64;100.00
44144;BME280;68165;51.920;4.492;2023-04-22T03:32:57;67045.72;;;10.70;100.00
44144;BME280;68165;51.920;4.492;2023-04-22T03:35:22;67042.00;;;10.69;100.00
44144;BME280;68165;51.920;4.492;2023-04-22T03:37:47;67038.66;;;10.66;100.00
44144;BME280;68165;51.920;4.492;2023-04-22T03:40:13;67038.47;;;10.63;100.00
44144;BME280;68165;51.920;4.492;2023-04-22T03:42:38;67042.00;;;10.69;100.00
44144;BME280;68165;51.920;4.492;2023-04-22T03:45:04;67047.19;;;10.76;100.00
44144;BME280;68165;51.920;4.492;2023-04-22T03:47:30;67051.31;;;10.75;100.00
44144;BME280;68165;51.920;4.492;2023-04-22T03:49:55;67053.53;;;10.77;100.00
44144;BME280;68165;51.920;4.492;2023-04-22T03:52:20;67064.53;;;10.85;100.00
44144;BME280;68165;51.920;4.492;2023-04-22T03:54:46;67051.47;;;10.78;100.00
44144;BME280;68165;51.920;4.492;2023-04-22T03:57:11;67060.41;;;10.86;100.00
44144;BME280;68165;51.920;4.492;2023-04-22T03:59:37;67068.78;;;10.93;100.00
44144;BME280;68165;51.920;4.492;2023-04-22T04:02:02;67078.47;;;10.97;100.00
44144;BME280;68165;51.920;4.492;2023-04-22T04:04:27;67079.22;;;11.00;100.00
44144;BME280;68165;51.920;4.492;2023-04-22T04:06:57;67068.78;;;10.93;100.00
44144;BME280;68165;51.920;4.492;2023-04-22T04:09:22;67079.59;;;10.98;100.00
44144;BME280;68165;51.920;4.492;2023-04-22T04:11:47;67087.97;;;11.06;100.00
44144;BME280;68165;51.920;4.492;2023-04-22T04:14:13;67073.63;;;10.95;100.00
44144;BME280;68165;51.920;4.492;2023-04-22T04:16:38;67065.81;;;10.88;100.00
44144;BME280;68165;51.920;4.492;2023-04-22T04:19:04;67065.81;;;10.88;100.00
44144;BME280;68165;51.920;4.492;2023-04-22T04:21:30;67074.19;;;10.96;100.00
44144;BME280;68165;51.920;4.492;2023-04-22T04:23:57;67081.03;;;11.04;100.00
44144;BME280;68165;51.920;4.492;2023-04-22T04:28:58;67079.59;;;10.98;100.00
44144;BME280;68165;51.920;4.492;2023-04-22T04:31:26;67087.41;;;11.05;100.00
44144;BME280;68165;51.920;4.492;2023-04-22T04:51:57;67100.00;;;11.22;100.00
44144;BME280;68165;51.920;4.492;2023-04-22T04:54:22;67105.59;;;11.27;100.00
44144;BME280;68165;51.920;4.492;2023-04-22T04:56:48;67099.13;;;11.16;100.00
44144;BME280;68165;51.920;4.492;2023-04-22T04:59:14;67104.13;;;11.21;100.00
44144;BME280;68165;51.920;4.492;2023-04-22T05:01:40;67092.19;;;11.15;100.00
44144;BME280;68165;51.920;4.492;2023-04-22T05:04:05;67114.59;;;11.28;100.00
44144;BME280;68165;51.920;4.492;2023-04-22T05:11:41;67095.56;;;11.18;100.00
44144;BME280;68165;51.920;4.492;2023-04-22T05:14:06;67110.06;;;11.31;100.00
44144;BME280;68165;51.920;4.492;2023-04-22T05:16:31;67113.41;;;11.34;100.00
44144;BME280;68165;51.920;4.492;2023-04-22T05:18:57;67112.28;;;11.33;100.00
44144;BME280;68165;51.920;4.492;2023-04-22T05:21:22;67120.09;;;11.40;100.00
44144;BME280;68165;51.920;4.492;2023-04-22T05:23:48;67110.06;;;11.31;100.00
44144;BME280;68165;51.920;4.492;2023-04-22T05:26:13;67105.59;;;11.27;100.00
44144;BME280;68165;51.920;4.492;2023-04-22T05:28:39;67116.78;;;11.37;100.00
44144;BME280;68165;51.920;4.492;2023-04-22T05:31:04;67127.19;;;11.44;100.00
44144;BME280;68165;51.920;4.492;2023-04-22T05:33:30;67112.13;;;11.30;100.00
44144;BME280;68165;51.920;4.492;2023-04-22T05:35:56;67122.00;;;11.37;100.00
44144;BME280;68165;51.920;4.492;2023-04-22T05:38:21;67117.34;;;11.37;100.00
44144;BME280;68165;51.920;4.492;2023-04-22T05:40:47;67126.81;;;11.46;100.00
44144;BME280;68165;51.920;4.492;2023-04-22T05:43:12;67135.19;;;11.54;100.00
44144;BME280;68165;51.920;4.492;2023-04-22T05:45:37;67133.50;;;11.52;100.00
44144;BME280;68165;51.920;4.492;2023-04-22T05:48:03;67133.50;;;11.52;100.00
44144;BME280;68165;51.920;4.492;2023-04-22T05:50:28;67139.88;;;11.53;100.00
44144;BME280;68165;51.920;4.492;2023-04-22T05:52:53;67135.75;;;11.54;100.00
44144;BME280;68165;51.920;4.492;2023-04-22T05:55:19;67136.13;;;11.52;100.00
44144;BME280;68165;51.920;4.492;2023-04-22T05:57:44;67154.16;;;11.71;100.00
44144;BME280;68165;51.920;4.492;2023-04-22T06:00:10;67145.78;;;11.63;100.00
44144;BME280;68165;51.920;4.492;2023-04-22T06:02:35;67164.06;;;11.77;100.00
44144;BME280;68165;51.920;4.492;2023-04-22T06:05:01;67159.97;;;11.71;100.00
44144;BME280;68165;51.920;4.492;2023-04-22T06:07:26;67170.22;;;11.83;100.00
44144;BME280;68165;51.920;4.492;2023-04-22T06:09:51;67170.59;;;11.81;100.00
44144;BME280;68165;51.920;4.492;2023-04-22T06:14:52;67171.91;;;11.84;100.00
44144;BME280;68165;51.920;4.492;2023-04-22T06:17:17;67181.56;;;11.96;100.00
44144;BME280;68165;51.920;4.492;2023-04-22T06:30:03;67206.69;;;12.18;100.00
44144;BME280;68165;51.920;4.492;2023-04-22T06:32:28;67212.81;;;12.24;100.00
44144;BME280;68165;51.920;4.492;2023-04-22T06:34:54;67227.34;;;12.37;100.00
44144;BME280;68165;51.920;4.492;2023-04-22T06:37:19;67239.63;;;12.48;100.00
44144;BME280;68165;51.920;4.492;2023-04-22T06:55:28;67331.31;;;13.31;97.55
44144;BME280;68165;51.920;4.492;2023-04-22T06:57:53;67340.81;;;13.40;96.45
44144;BME280;68165;51.920;4.492;2023-04-22T07:00:20;67351.69;;;13.45;94.97
44144;BME280;68165;51.920;4.492;2023-04-22T07:02:45;67358.16;;;13.56;94.66
44144;BME280;68165;51.920;4.492;2023-04-22T07:05:10;67367.81;;;13.67;93.59
44144;BME280;68165;51.920;4.492;2023-04-22T07:07:36;67364.47;;;13.64;93.54
44144;BME280;68165;51.920;4.492;2023-04-22T07:10:02;67383.88;;;13.79;93.34
44144;BME280;68165;51.920;4.492;2023-04-22T07:12:28;67404.25;;;13.93;92.72
44144;BME280;68165;51.920;4.492;2023-04-22T07:14:53;67403.44;;;13.97;92.56
44144;BME280;68165;51.920;4.492;2023-04-22T07:17:19;67426.41;;;14.17;92.27
44144;BME280;68165;51.920;4.492;2023-04-22T07:19:47;67439.09;;;14.26;91.42
44144;BME280;68165;51.920;4.492;2023-04-22T07:22:14;67449.53;;;14.41;90.32
44144;BME280;68165;51.920;4.492;2023-04-22T07:24:39;67468.63;;;14.51;89.75
44144;BME280;68165;51.920;4.492;2023-04-22T07:27:05;67479.03;;;14.65;88.96
44144;BME280;68165;51.920;4.492;2023-04-22T07:29:30;67492.44;;;14.77;88.00
44144;BME280;68165;51.920;4.492;2023-04-22T07:31:56;67494.13;;;14.79;87.06
44144;BME280;68165;51.920;4.492;2023-04-22T07:34:21;67498.06;;;14.82;86.39
44144;BME280;68165;51.920;4.492;2023-04-22T07:36:49;67521.97;;;15.01;86.40
44144;BME280;68165;51.920;4.492;2023-04-22T07:39:15;67557.09;;;15.31;86.09
44144;BME280;68165;51.920;4.492;2023-04-22T07:41:40;67567.47;;;15.45;84.54
44144;BME280;68165;51.920;4.492;2023-04-22T07:44:06;67565.38;;;15.45;83.04
44144;BME280;68165;51.920;4.492;2023-04-22T07:46:31;67591.03;;;15.66;82.53
44144;BME280;68165;51.920;4.492;2023-04-22T07:48:56;67627.81;;;15.97;81.29
44144;BME280;68165;51.920;4.492;2023-04-22T07:51:22;67648.88;;;16.21;80.57
44144;BME280;68165;51.920;4.492;2023-04-22T07:53:47;67686.28;;;16.52;78.66
44144;BME280;68165;51.920;4.492;2023-04-22T07:56:12;67715.47;;;16.79;76.89
44144;BME280;68165;51.920;4.492;2023-04-22T07:58:38;67747.25;;;17.05;76.52
44144;BME280;68165;51.920;4.492;2023-04-22T08:01:03;67788.38;;;17.44;74.50
44144;BME280;68165;51.920;4.492;2023-04-22T08:03:28;67808.59;;;17.63;72.66
44144;BME280;68165;51.920;4.492;2023-04-22T08:05:54;67815.16;;;17.66;71.13
44144;BME280;68165;51.920;4.492;2023-04-22T08:08:22;67804.47;;;17.57;70.98
44144;BME280;68165;51.920;4.492;2023-04-22T08:10:48;67800.69;;;17.55;71.21
44144;BME280;68165;51.920;4.492;2023-04-22T08:13:13;67796.06;;;17.49;71.11
44144;BME280;68165;51.920;4.492;2023-04-22T08:15:38;67794.38;;;17.47;70.00
44144;BME280;68165;51.920;4.492;2023-04-22T08:18:04;67803.50;;;17.58;69.22
44144;BME280;68165;51.920;4.492;2023-04-22T08:20:29;67815.47;;;17.71;68.70
44144;BME280;68165;51.920;4.492;2023-04-22T08:22:54;67828.47;;;17.76;68.67
44144;BME280;68165;51.920;4.492;2023-04-22T08:25:24;67837.59;;;17.86;67.89
44144;BME280;68165;51.920;4.492;2023-04-22T08:27:50;67843.34;;;17.94;66.92
44144;BME280;68165;51.920;4.492;2023-04-22T08:30:15;67842.25;;;17.93;66.57
44144;BME280;68165;51.920;4.492;2023-04-22T08:32:41;67850.25;;;18.03;64.55
44144;BME280;68165;51.920;4.492;2023-04-22T08:35:06;67849.38;;;17.97;64.82
44144;BME280;68165;51.920;4.492;2023-04-22T08:37:33;67836.63;;;17.88;65.61
44144;BME280;68165;51.920;4.492;2023-04-22T08:39:58;67822.44;;;17.73;65.41
44144;BME280;68165;51.920;4.492;2023-04-22T08:42:25;67844.19;;;17.90;65.10
44144;BME280;68165;51.920;4.492;2023-04-22T08:44:52;67862.47;;;18.11;64.07
44144;BME280;68165;51.920;4.492;2023-04-22T08:47:19;67870.88;;;18.19;63.64
44144;BME280;68165;51.920;4.492;2023-04-22T08:49:45;67872.94;;;18.18;63.15
44144;BME280;68165;51.920;4.492;2023-04-22T08:52:12;67886.03;;;18.32;62.73
44144;BME280;68165;51.920;4.492;2023-04-22T08:54:40;67899.91;;;18.43;62.08
44144;BME280;68165;51.920;4.492;2023-04-22T08:57:07;67894.28;;;18.38;62.88
44144;BME280;68165;51.920;4.492;2023-04-22T08:59:34;67886.44;;;18.30;62.88
44144;BME280;68165;51.920;4.492;2023-04-22T09:02:01;67864.69;;;18.13;62.95
44144;BME280;68165;51.920;4.492;2023-04-22T09:04:27;67870.47;;;18.21;63.19
44144;BME280;68165;51.920;4.492;2023-04-22T09:06:52;67866.63;;;18.10;62.86
44144;BME280;68165;51.920;4.492;2023-04-22T09:09:18;67879.84;;;18.27;62.49
44144;BME280;68165;51.920;4.492;2023-04-22T09:11:43;67873.13;;;18.21;61.92
44144;BME280;68165;51.920;4.492;2023-04-22T09:14:09;67856.81;;;18.06;61.96
44144;BME280;68165;51.920;4.492;2023-04-22T09:16:40;67863.56;;;18.12;61.90
44144;BME280;68165;51.920;4.492;2023-04-22T09:19:12;67857.56;;;18.09;62.78
44144;BME280;68165;51.920;4.492;2023-04-22T09:21:39;67865.66;;;18.12;62.95
44144;BME280;68165;51.920;4.492;2023-04-22T09:24:11;67857.69;;;18.12;62.48
44144;BME280;68165;51.920;4.492;2023-04-22T09:26:41;67851.22;;;18.01;62.22
44144;BME280;68165;51.920;4.492;2023-04-22T09:29:06;67848.56;;;18.01;62.52
44144;BME280;68165;51.920;4.492;2023-04-22T09:31:34;67867.75;;;18.11;62.76
44144;BME280;68165;51.920;4.492;2023-04-22T09:34:02;67876.88;;;18.22;62.93
44144;BME280;68165;51.920;4.492;2023-04-22T09:36:29;67888.84;;;18.35;62.44
44144;BME280;68165;51.920;4.492;2023-04-22T09:38:57;67896.53;;;18.40;61.80
44144;BME280;68165;51.920;4.492;2023-04-22T09:41:33;67926.31;;;18.66;61.03
44144;BME280;68165;51.920;4.492;2023-04-22T09:44:00;67918.03;;;18.61;58.64
44144;BME280;68165;51.920;4.492;2023-04-22T09:46:27;67927.59;;;18.70;58.58
44144;BME280;68165;51.920;4.492;2023-04-22T09:48:57;67978.41;;;19.11;58.78
44144;BME280;68165;51.920;4.492;2023-04-22T09:51:24;68020.31;;;19.53;57.26
44144;BME280;68165;51.920;4.492;2023-04-22T09:54:05;68060.50;;;19.94;56.35
44144;BME280;68165;51.920;4.492;2023-04-22T09:56:52;68080.84;;;20.06;54.90
44144;BME280;68165;51.920;4.492;2023-04-22T09:59:27;68067.34;;;19.93;54.56
44144;BME280;68165;51.920;4.492;2023-04-22T10:01:56;68066.22;;;19.92;54.59
44144;BME280;68165;51.920;4.492;2023-04-22T10:04:22;68074.81;;;20.03;53.88
44144;BME280;68165;51.920;4.492;2023-04-22T10:06:49;68084.38;;;20.11;54.05
44144;BME280;68165;51.920;4.492;2023-04-22T10:09:19;68096.59;;;20.20;53.96
44144;BME280;68165;51.920;4.492;2023-04-22T10:11:46;68092.50;;;20.14;54.61
44144;BME280;68165;51.920;4.492;2023-04-22T10:14:11;68068.06;;;19.96;53.45
44144;BME280;68165;51.920;4.492;2023-04-22T10:16:39;68054.44;;;19.82;54.03
44144;BME280;68165;51.920;4.492;2023-04-22T10:19:06;68042.31;;;19.66;54.23
44144;BME280;68165;51.920;4.492;2023-04-22T10:21:34;68011.31;;;19.45;55.23
44144;BME280;68165;51.920;4.492;2023-04-22T10:24:00;67986.56;;;19.23;55.79
44144;BME280;68165;51.920;4.492;2023-04-22T10:29:21;67919.16;;;18.62;58.55
44144;BME280;68165;51.920;4.492;2023-04-22T10:34:35;67879.28;;;18.26;60.56
44144;BME280;68165;51.920;4.492;2023-04-22T10:37:11;67870.72;;;18.16;61.57
44144;BME280;68165;51.920;4.492;2023-04-22T10:39:38;67857.38;;;18.07;61.84
44144;BME280;68165;51.920;4.492;2023-04-22T10:44:54;67828.78;;;17.81;63.45
44144;BME280;68165;51.920;4.492;2023-04-22T10:47:34;67819.22;;;17.72;64.31
44144;BME280;68165;51.920;4.492;2023-04-22T10:52:39;67790.59;;;17.46;66.58
44144;BME280;68165;51.920;4.492;2023-04-22T10:55:05;67765.22;;;17.21;67.57
44144;BME280;68165;51.920;4.492;2023-04-22T10:57:39;67744.03;;;17.04;68.45
44144;BME280;68165;51.920;4.492;2023-04-22T11:00:28;67731.16;;;16.93;67.95
44144;BME280;68165;51.920;4.492;2023-04-22T11:05:30;67697.91;;;16.60;72.40
44144;BME280;68165;51.920;4.492;2023-04-22T11:08:02;67678.41;;;16.45;75.11
44144;BME280;68165;51.920;4.492;2023-04-22T11:10:43;67649.28;;;16.19;78.86
44144;BME280;68165;51.920;4.492;2023-04-22T11:13:14;67634.97;;;16.01;81.71
44144;BME280;68165;51.920;4.492;2023-04-22T11:15:42;67618.72;;;15.86;84.29
44144;BME280;68165;51.920;4.492;2023-04-22T11:18:12;67596.06;;;15.71;87.20
44144;BME280;68165;51.920;4.492;2023-04-22T11:20:38;67556.97;;;15.38;87.42
44144;BME280;68165;51.920;4.492;2023-04-22T11:23:04;67529.78;;;15.08;89.59
44144;BME280;68165;51.920;4.492;2023-04-22T11:25:32;67496.38;;;14.81;93.07
44144;BME280;68165;51.920;4.492;2023-04-22T11:27:57;67491.34;;;14.76;95.91
44144;BME280;68165;51.920;4.492;2023-04-22T11:30:26;67475.50;;;14.59;98.95
44144;BME280;68165;51.920;4.492;2023-04-22T11:32:56;67485.41;;;14.66;100.00
44144;BME280;68165;51.920;4.492;2023-04-22T11:35:41;67471.19;;;14.58;100.00
44144;BME280;68165;51.920;4.492;2023-04-22T11:38:07;67470.88;;;14.53;100.00
44144;BME280;68165;51.920;4.492;2023-04-22T11:40:34;67465.97;;;14.51;100.00
44144;BME280;68165;51.920;4.492;2023-04-22T11:43:01;67466.53;;;14.51;100.00
44144;BME280;68165;51.920;4.492;2023-04-22T11:45:29;67445.97;;;14.35;100.00
44144;BME280;68165;51.920;4.492;2023-04-22T11:47:54;67435.75;;;14.23;100.00
44144;BME280;68165;51.920;4.492;2023-04-22T11:50:23;67432.00;;;14.22;100.00
44144;BME280;68165;51.920;4.492;2023-04-22T11:52:52;67447.63;;;14.37;100.00
44144;BME280;68165;51.920;4.492;2023-04-22T11:55:30;67435.75;;;14.23;100.00
44144;BME280;68165;51.920;4.492;2023-04-22T11:58:00;67429.19;;;14.20;100.00
44144;BME280;68165;51.920;4.492;2023-04-22T12:05:45;67414.88;;;14.02;100.00
44144;BME280;68165;51.920;4.492;2023-04-22T12:08:14;67436.84;;;14.24;100.00
44144;BME280;68165;51.920;4.492;2023-04-22T12:13:27;67416.31;;;14.08;100.00
44144;BME280;68165;51.920;4.492;2023-04-22T12:16:02;67399.38;;;13.90;100.00
44144;BME280;68165;51.920;4.492;2023-04-22T12:18:47;67417.28;;;14.07;100.00
44144;BME280;68165;51.920;4.492;2023-04-22T12:21:15;67415.19;;;14.07;100.00
44144;BME280;68165;51.920;4.492;2023-04-22T12:23:48;67424.16;;;14.15;100.00
44144;BME280;68165;51.920;4.492;2023-04-22T12:26:20;67419.69;;;14.11;100.00
44144;BME280;68165;51.920;4.492;2023-04-22T12:28:46;67407.22;;;13.98;100.00
44144;BME280;68165;51.920;4.492;2023-04-22T12:31:13;67415.75;;;14.08;100.00
44144;BME280;68165;51.920;4.492;2023-04-22T12:33:39;67418.56;;;14.10;100.00
44144;BME280;68165;51.920;4.492;2023-04-22T12:36:05;67426.78;;;14.15;100.00
44144;BME280;68165;51.920;4.492;2023-04-22T12:38:31;67448.44;;;14.32;100.00
44144;BME280;68165;51.920;4.492;2023-04-22T12:40:57;67465.81;;;14.48;100.00
44144;BME280;68165;51.920;4.492;2023-04-22T12:43:23;67465.41;;;14.50;100.00
44144;BME280;68165;51.920;4.492;2023-04-22T12:45:49;67454.38;;;14.43;100.00
44144;BME280;68165;51.920;4.492;2023-04-22T12:48:14;67463.72;;;14.49;100.00
44144;BME280;68165;51.920;4.492;2023-04-22T12:50:41;67465.28;;;14.48;100.00
44144;BME280;68165;51.920;4.492;2023-04-22T12:53:07;67455.50;;;14.44;100.00
44144;BME280;68165;51.920;4.492;2023-04-22T12:55:33;67467.09;;;14.52;100.00
44144;BME280;68165;51.920;4.492;2023-04-22T12:57:58;67476.22;;;14.62;100.00
44144;BME280;68165;51.920;4.492;2023-04-22T13:00:24;67486.13;;;14.69;100.00
44144;BME280;68165;51.920;4.492;2023-04-22T13:02:50;67485.31;;;14.73;100.00
44144;BME280;68165;51.920;4.492;2023-04-22T13:05:17;67499.72;;;14.84;100.00
44144;BME280;68165;51.920;4.492;2023-04-22T13:07:43;67514.69;;;14.95;100.00
44144;BME280;68165;51.920;4.492;2023-04-22T13:10:10;67530.75;;;15.07;100.00
44144;BME280;68165;51.920;4.492;2023-04-22T13:12:36;67517.47;;;14.97;100.00
44144;BME280;68165;51.920;4.492;2023-04-22T13:15:03;67524.34;;;15.06;100.00
44144;BME280;68165;51.920;4.492;2023-04-22T13:17:28;67510.19;;;14.91;100.00
44144;BME280;68165;51.920;4.492;2023-04-22T13:19:54;67521.97;;;15.01;100.00
44144;BME280;68165;51.920;4.492;2023-04-22T13:22:19;67515.78;;;14.96;100.00
44144;BME280;68165;51.920;4.492;2023-04-22T13:24:45;67530.91;;;15.09;100.00
44144;BME280;68165;51.920;4.492;2023-04-22T13:27:10;67529.97;;;15.11;100.00
44144;BME280;68165;51.920;4.492;2023-04-22T13:29:36;67511.47;;;14.94;100.00
44144;BME280;68165;51.920;4.492;2023-04-22T13:32:03;67520.59;;;15.05;100.00
44144;BME280;68165;51.920;4.492;2023-04-22T13:34:28;67526.03;;;15.07;100.00
44144;BME280;68165;51.920;4.492;2023-04-22T13:36:54;67524.34;;;15.06;100.00
44144;BME280;68165;51.920;4.492;2023-04-22T13:39:20;67524.91;;;15.06;100.00
44144;BME280;68165;51.920;4.492;2023-04-22T13:41:47;67528.84;;;15.10;100.00
44144;BME280;68165;51.920;4.492;2023-04-22T13:44:13;67519.72;;;14.99;100.00
44144;BME280;68165;51.920;4.492;2023-04-22T13:46:40;67528.28;;;15.09;100.00
44144;BME280;68165;51.920;4.492;2023-04-22T13:49:06;67523.25;;;15.05;100.00
44144;BME280;68165;51.920;4.492;2023-04-22T13:51:33;67523.25;;;15.05;100.00
44144;BME280;68165;51.920;4.492;2023-04-22T13:53:59;67511.47;;;14.94;100.00
44144;BME280;68165;51.920;4.492;2023-04-22T13:56:24;67513.88;;;14.99;100.00
44144;BME280;68165;51.920;4.492;2023-04-22T13:58:52;67514.69;;;14.95;100.00
44144;BME280;68165;51.920;4.492;2023-04-22T14:01:18;67518.75;;;15.01;100.00
44144;BME280;68165;51.920;4.492;2023-04-22T14:03:46;67513.72;;;14.96;100.00
44144;BME280;68165;51.920;4.492;2023-04-22T14:06:13;67510.91;;;14.94;100.00
44144;BME280;68165;51.920;4.492;2023-04-22T14:08:39;67512.59;;;14.95;100.00
44144;BME280;68165;51.920;4.492;2023-04-22T14:11:10;67489.09;;;14.74;100.00
44144;BME280;68165;51.920;4.492;2023-04-22T14:13:36;67479.03;;;14.65;100.00
44144;BME280;68165;51.920;4.492;2023-04-22T14:16:02;67474.53;;;14.61;100.00
44144;BME280;68165;51.920;4.492;2023-04-22T14:18:33;67455.91;;;14.42;100.00
44144;BME280;68165;51.920;4.492;2023-04-22T14:21:02;67454.06;;;14.38;100.00
44144;BME280;68165;51.920;4.492;2023-04-22T14:23:28;67425.66;;;14.14;100.00
44144;BME280;68165;51.920;4.492;2023-04-22T14:25:53;67426.78;;;14.15;100.00
44144;BME280;68165;51.920;4.492;2023-04-22T14:28:19;67431.25;;;14.19;100.00
44144;BME280;68165;51.920;4.492;2023-04-22T14:30:44;67423.84;;;14.10;100.00
44144;BME280;68165;51.920;4.492;2023-04-22T14:33:10;67420.06;;;14.09;100.00
44144;BME280;68165;51.920;4.492;2023-04-22T14:35:37;67404.97;;;13.96;100.00
44144;BME280;68165;51.920;4.492;2023-04-22T14:38:04;67410.00;;;14.00;100.00
44144;BME280;68165;51.920;4.492;2023-04-22T14:40:30;67396.59;;;13.88;100.00
44144;BME280;68165;51.920;4.492;2023-04-22T14:42:57;67390.59;;;13.85;100.00
44144;BME280;68165;51.920;4.492;2023-04-22T14:45:24;67390.97;;;13.83;100.00
44144;BME280;68165;51.920;4.492;2023-04-22T14:47:50;67382.75;;;13.78;100.00
44144;BME280;68165;51.920;4.492;2023-04-22T14:50:16;67362.06;;;13.59;100.00
44144;BME280;68165;51.920;4.492;2023-04-22T14:52:42;67354.63;;;13.50;100.00